createdAt,value
2017-11-17T00:00:29.467Z,1018.01
2017-11-17T00:01:29.461Z,1017.99
2017-11-17T00:02:29.452Z,1018.02
2017-11-17T00:03:29.448Z,1017.98
2017-11-17T00:04:29.436Z,1018.06
2017-11-17T00:05:30.083Z,1018.03
2017-11-17T00:06:29.418Z,1018.05
2017-11-17T00:07:29.412Z,1018.05
2017-11-17T00:08:29.414Z,1018.07
2017-11-17T00:09:29.397Z,1018.08
2017-11-17T00:10:29.389Z,1018.12
2017-11-17T00:11:29.387Z,1018.13
2017-11-17T00:12:29.376Z,1018.08
2017-11-17T00:13:29.369Z,1018.13
2017-11-17T00:14:29.359Z,1018.11
2017-11-17T00:15:29.363Z,1018.11
2017-11-17T00:16:29.349Z,1018.14
2017-11-17T00:17:29.341Z,1018.10
2017-11-17T00:18:29.335Z,1018.11
2017-11-17T00:19:29.321Z,1018.08
2017-11-17T00:20:29.318Z,1018.08
2017-11-17T00:21:29.308Z,1018.03
2017-11-17T00:22:29.306Z,1018.05
2017-11-17T00:23:29.286Z,1018.06
2017-11-17T00:24:29.283Z,1018.08
2017-11-17T00:25:29.270Z,1018.07
2017-11-17T00:26:29.265Z,1018.04
2017-11-17T00:27:29.262Z,1018.09
2017-11-17T00:28:29.255Z,1018.05
2017-11-17T00:29:29.241Z,1018.07
2017-11-17T00:30:30.093Z,1018.09
2017-11-17T00:31:29.233Z,1018.10
2017-11-17T00:32:29.226Z,1018.11
2017-11-17T00:33:29.222Z,1018.12
2017-11-17T00:34:29.213Z,1018.12
2017-11-17T00:35:29.214Z,1018.12
2017-11-17T00:36:29.195Z,1018.09
2017-11-17T00:37:29.192Z,1018.14
2017-11-17T00:38:29.177Z,1018.13
2017-11-17T00:39:29.166Z,1018.12
2017-11-17T00:40:29.161Z,1018.09
2017-11-17T00:41:29.152Z,1018.09
2017-11-17T00:42:29.139Z,1018.08
2017-11-17T00:43:29.134Z,1018.13
2017-11-17T00:44:29.128Z,1018.09
2017-11-17T00:45:29.127Z,1018.08
2017-11-17T00:46:30.099Z,1018.07
2017-11-17T00:47:29.101Z,1018.07
2017-11-17T00:48:29.100Z,1018.04
2017-11-17T00:49:29.096Z,1018.07
2017-11-17T00:50:29.077Z,1018.09
2017-11-17T00:51:29.072Z,1018.12
2017-11-17T00:52:29.592Z,1018.08
2017-11-17T00:53:29.599Z,1018.11
2017-11-17T00:54:29.053Z,1018.13
2017-11-17T00:55:29.047Z,1018.13
2017-11-17T00:56:29.041Z,1018.12
2017-11-17T00:57:29.033Z,1018.16
2017-11-17T00:58:29.020Z,1018.13
2017-11-17T00:59:29.011Z,1018.08
2017-11-17T01:00:29.014Z,1018.12
2017-11-17T01:01:29.018Z,1018.13
2017-11-17T01:02:28.995Z,1018.15
2017-11-17T01:03:28.983Z,1018.16
2017-11-17T01:04:28.974Z,1018.13
2017-11-17T01:05:28.965Z,1018.14
2017-11-17T01:06:28.957Z,1018.11
2017-11-17T01:07:28.948Z,1018.14
2017-11-17T01:08:28.945Z,1018.10
2017-11-17T01:09:28.933Z,1018.11
2017-11-17T01:10:28.938Z,1018.14
2017-11-17T01:11:29.608Z,1018.10
2017-11-17T01:12:28.908Z,1018.13
2017-11-17T01:13:28.906Z,1018.10
2017-11-17T01:14:28.904Z,1018.11
2017-11-17T01:15:28.889Z,1018.12
2017-11-17T01:16:28.888Z,1018.14
2017-11-17T01:17:28.879Z,1018.21
2017-11-17T01:18:28.861Z,1018.18
2017-11-17T01:19:28.852Z,1018.18
2017-11-17T01:20:28.850Z,1018.19
2017-11-17T01:21:28.841Z,1018.21
2017-11-17T01:22:28.837Z,1018.20
2017-11-17T01:23:28.830Z,1018.20
2017-11-17T01:24:28.821Z,1018.18
2017-11-17T01:25:28.803Z,1018.16
2017-11-17T01:26:28.811Z,1018.16
2017-11-17T01:27:28.796Z,1018.17
2017-11-17T01:28:28.790Z,1018.14
2017-11-17T01:29:28.779Z,1018.15
2017-11-17T01:30:28.780Z,1018.13
2017-11-17T01:31:28.752Z,1018.10
2017-11-17T01:32:28.753Z,1018.11
2017-11-17T01:33:28.745Z,1018.10
2017-11-17T01:34:28.736Z,1018.07
2017-11-17T01:35:28.730Z,1018.08
2017-11-17T01:36:28.720Z,1018.09
2017-11-17T01:37:28.718Z,1018.08
2017-11-17T01:38:28.702Z,1018.05
2017-11-17T01:39:28.696Z,1018.04
2017-11-17T01:40:28.688Z,1018.03
2017-11-17T01:41:28.683Z,1018.06
2017-11-17T01:42:28.676Z,1018.11
2017-11-17T01:43:28.676Z,1018.09
2017-11-17T01:44:28.665Z,1018.10
2017-11-17T01:45:28.665Z,1018.08
2017-11-17T01:46:28.644Z,1018.13
2017-11-17T01:47:28.650Z,1018.09
2017-11-17T01:48:28.628Z,1018.07
2017-11-17T01:49:28.623Z,1018.11
2017-11-17T01:50:28.612Z,1018.06
2017-11-17T01:51:28.602Z,1018.06
2017-11-17T01:52:28.595Z,1018.10
2017-11-17T01:53:28.591Z,1018.06
2017-11-17T01:54:28.580Z,1018.09
2017-11-17T01:55:28.577Z,1018.09
2017-11-17T01:56:29.119Z,1018.07
2017-11-17T01:57:28.564Z,1018.09
2017-11-17T01:58:28.547Z,1018.06
2017-11-17T01:59:28.540Z,1018.08
2017-11-17T02:00:28.542Z,1018.06
2017-11-17T02:01:28.525Z,1018.10
2017-11-17T02:02:28.523Z,1018.08
2017-11-17T02:03:28.504Z,1018.07
2017-11-17T02:04:28.538Z,1018.06
2017-11-17T02:04:40.496Z,1018.06
2017-11-17T02:06:28.487Z,1018.05
2017-11-17T02:07:28.472Z,1018.04
2017-11-17T02:08:28.472Z,1018.07
2017-11-17T02:09:28.464Z,1018.06
2017-11-17T02:10:28.455Z,1018.05
2017-11-17T02:11:28.451Z,1018.04
2017-11-17T02:12:28.442Z,1018.05
2017-11-17T02:13:28.434Z,1018.05
2017-11-17T02:14:28.433Z,1018.04
2017-11-17T02:15:28.414Z,1018.06
2017-11-17T02:16:28.421Z,1018.09
2017-11-17T02:17:28.392Z,1018.11
2017-11-17T02:18:28.396Z,1018.12
2017-11-17T02:19:28.383Z,1018.12
2017-11-17T02:20:28.381Z,1018.07
2017-11-17T02:21:28.365Z,1018.08
2017-11-17T02:22:28.362Z,1018.09
2017-11-17T02:23:28.351Z,1018.09
2017-11-17T02:24:28.347Z,1018.16
2017-11-17T02:25:28.332Z,1018.09
2017-11-17T02:26:28.331Z,1018.08
2017-11-17T02:27:28.322Z,1018.08
2017-11-17T02:28:28.316Z,1018.08
2017-11-17T02:29:28.306Z,1018.07
2017-11-17T02:30:28.295Z,1018.10
2017-11-17T02:31:28.281Z,1018.04
2017-11-17T02:32:28.283Z,1018.04
2017-11-17T02:33:28.284Z,1018.11
2017-11-17T02:34:28.262Z,1018.09
2017-11-17T02:35:28.261Z,1018.06
2017-11-17T02:36:28.250Z,1018.04
2017-11-17T02:37:28.246Z,1018.04
2017-11-17T02:38:28.235Z,1018.07
2017-11-17T02:39:28.230Z,1018.06
2017-11-17T02:40:28.221Z,1018.06
2017-11-17T02:41:28.212Z,1018.04
2017-11-17T02:42:28.206Z,1018.05
2017-11-17T02:43:31.134Z,1018.07
2017-11-17T02:44:28.191Z,1018.09
2017-11-17T02:45:28.176Z,1018.11
2017-11-17T02:46:28.170Z,1018.10
2017-11-17T02:47:28.161Z,1018.09
2017-11-17T02:48:28.157Z,1018.08
2017-11-17T02:49:28.150Z,1018.11
2017-11-17T02:50:28.641Z,1018.10
2017-11-17T02:51:28.132Z,1018.08
2017-11-17T02:52:28.129Z,1018.08
2017-11-17T02:53:28.108Z,1018.12
2017-11-17T02:54:28.648Z,1018.11
2017-11-17T02:55:28.648Z,1018.08
2017-11-17T02:56:28.088Z,1018.08
2017-11-17T02:57:28.652Z,1018.11
2017-11-17T02:58:28.077Z,1018.07
2017-11-17T02:59:28.644Z,1018.08
2017-11-17T03:00:28.071Z,1018.10
2017-11-17T03:01:28.054Z,1018.09
2017-11-17T03:02:28.044Z,1018.09
2017-11-17T03:03:28.033Z,1018.09
2017-11-17T03:04:28.029Z,1018.10
2017-11-17T03:05:28.653Z,1018.12
2017-11-17T03:06:28.017Z,1018.17
2017-11-17T03:07:28.008Z,1018.14
2017-11-17T03:08:28.657Z,1018.19
2017-11-17T03:09:27.991Z,1018.16
2017-11-17T03:10:27.981Z,1018.17
2017-11-17T03:11:27.975Z,1018.16
2017-11-17T03:12:27.974Z,1018.20
2017-11-17T03:13:27.960Z,1018.18
2017-11-17T03:14:27.951Z,1018.20
2017-11-17T03:15:27.944Z,1018.18
2017-11-17T03:16:27.940Z,1018.19
2017-11-17T03:17:27.928Z,1018.20
2017-11-17T03:18:28.645Z,1018.19
2017-11-17T03:19:27.918Z,1018.23
2017-11-17T03:20:27.907Z,1018.20
2017-11-17T03:21:27.895Z,1018.23
2017-11-17T03:22:27.887Z,1018.19
2017-11-17T03:23:27.878Z,1018.19
2017-11-17T03:24:27.869Z,1018.21
2017-11-17T03:25:28.655Z,1018.22
2017-11-17T03:26:28.659Z,1018.20
2017-11-17T03:27:27.851Z,1018.21
2017-11-17T03:28:27.856Z,1018.22
2017-11-17T03:29:27.841Z,1018.21
2017-11-17T03:30:27.825Z,1018.23
2017-11-17T03:31:27.829Z,1018.24
2017-11-17T03:32:27.815Z,1018.24
2017-11-17T03:33:27.812Z,1018.26
2017-11-17T03:34:27.813Z,1018.28
2017-11-17T03:35:27.799Z,1018.27
2017-11-17T03:36:27.782Z,1018.28
2017-11-17T03:37:27.773Z,1018.29
2017-11-17T03:38:27.758Z,1018.30
2017-11-17T03:39:27.758Z,1018.31
2017-11-17T03:40:27.752Z,1018.28
2017-11-17T03:41:27.752Z,1018.28
2017-11-17T03:42:27.727Z,1018.28
2017-11-17T03:43:27.724Z,1018.29
2017-11-17T03:44:27.724Z,1018.27
2017-11-17T03:45:27.711Z,1018.27
2017-11-17T03:46:27.698Z,1018.31
2017-11-17T03:47:27.693Z,1018.30
2017-11-17T03:48:27.685Z,1018.31
2017-11-17T03:49:27.678Z,1018.33
2017-11-17T03:50:27.675Z,1018.33
2017-11-17T03:51:27.668Z,1018.36
2017-11-17T03:52:27.667Z,1018.36
2017-11-17T03:53:27.666Z,1018.37
2017-11-17T03:54:27.638Z,1018.42
2017-11-17T03:55:27.623Z,1018.40
2017-11-17T03:56:27.635Z,1018.38
2017-11-17T03:57:27.620Z,1018.37
2017-11-17T03:58:27.607Z,1018.42
2017-11-17T03:59:27.598Z,1018.41
2017-11-17T04:00:27.593Z,1018.44
2017-11-17T04:01:27.576Z,1018.46
2017-11-17T04:02:27.584Z,1018.51
2017-11-17T04:03:27.575Z,1018.52
2017-11-17T04:04:28.178Z,1018.50
2017-11-17T04:05:27.560Z,1018.56
2017-11-17T04:06:27.542Z,1018.52
2017-11-17T04:07:27.541Z,1018.54
2017-11-17T04:08:27.529Z,1018.51
2017-11-17T04:09:27.526Z,1018.51
2017-11-17T04:10:27.510Z,1018.52
2017-11-17T04:11:27.505Z,1018.58
2017-11-17T04:12:27.508Z,1018.57
2017-11-17T04:13:27.494Z,1018.58
2017-11-17T04:14:27.485Z,1018.55
2017-11-17T04:15:30.185Z,1018.61
2017-11-17T04:16:27.470Z,1018.61
2017-11-17T04:17:27.458Z,1018.61
2017-11-17T04:18:27.454Z,1018.62
2017-11-17T04:19:27.452Z,1018.61
2017-11-17T04:20:27.442Z,1018.63
2017-11-17T04:21:27.431Z,1018.63
2017-11-17T04:22:27.412Z,1018.61
2017-11-17T04:23:27.408Z,1018.61
2017-11-17T04:24:27.416Z,1018.57
2017-11-17T04:25:30.178Z,1018.62
2017-11-17T04:26:27.393Z,1018.60
2017-11-17T04:27:27.398Z,1018.61
2017-11-17T04:28:27.373Z,1018.61
2017-11-17T04:29:27.366Z,1018.61
2017-11-17T04:30:27.363Z,1018.61
2017-11-17T04:31:27.352Z,1018.65
2017-11-17T04:32:27.343Z,1018.60
2017-11-17T04:33:27.351Z,1018.64
2017-11-17T04:34:27.328Z,1018.66
2017-11-17T04:35:27.327Z,1018.62
2017-11-17T04:36:27.318Z,1018.68
2017-11-17T04:37:27.302Z,1018.67
2017-11-17T04:38:27.297Z,1018.68
2017-11-17T04:39:27.284Z,1018.68
2017-11-17T04:40:27.276Z,1018.66
2017-11-17T04:41:27.275Z,1018.69
2017-11-17T04:42:27.261Z,1018.69
2017-11-17T04:43:27.255Z,1018.71
2017-11-17T04:44:27.248Z,1018.72
2017-11-17T04:45:27.239Z,1018.74
2017-11-17T04:46:27.233Z,1018.71
2017-11-17T04:47:27.224Z,1018.73
2017-11-17T04:48:27.224Z,1018.71
2017-11-17T04:49:27.204Z,1018.71
2017-11-17T04:50:27.209Z,1018.68
2017-11-17T04:51:27.196Z,1018.74
2017-11-17T04:52:27.191Z,1018.78
2017-11-17T04:53:27.184Z,1018.77
2017-11-17T04:54:27.169Z,1018.76
2017-11-17T04:55:27.161Z,1018.78
2017-11-17T04:56:27.159Z,1018.68
2017-11-17T04:57:27.166Z,1018.71
2017-11-17T04:58:27.146Z,1018.71
2017-11-17T04:59:27.136Z,1018.68
2017-11-17T05:00:27.124Z,1018.70
2017-11-17T05:01:27.113Z,1018.68
2017-11-17T05:02:27.105Z,1018.70
2017-11-17T05:03:27.108Z,1018.70
2017-11-17T05:04:27.090Z,1018.69
2017-11-17T05:05:27.087Z,1018.64
2017-11-17T05:06:27.080Z,1018.67
2017-11-17T05:07:27.070Z,1018.68
2017-11-17T05:08:27.065Z,1018.67
2017-11-17T05:09:27.689Z,1018.69
2017-11-17T05:10:27.044Z,1018.71
2017-11-17T05:11:27.040Z,1018.73
2017-11-17T05:12:27.032Z,1018.75
2017-11-17T05:13:27.021Z,1018.74
2017-11-17T05:14:27.023Z,1018.81
2017-11-17T05:15:27.016Z,1018.82
2017-11-17T05:16:27.005Z,1018.84
2017-11-17T05:17:27.711Z,1018.85
2017-11-17T05:18:26.981Z,1018.85
2017-11-17T05:19:26.979Z,1018.87
2017-11-17T05:20:26.980Z,1018.85
2017-11-17T05:21:26.963Z,1018.91
2017-11-17T05:22:26.956Z,1018.90
2017-11-17T05:23:26.979Z,1018.93
2017-11-17T05:24:26.961Z,1018.94
2017-11-17T05:25:26.932Z,1018.96
2017-11-17T05:26:26.921Z,1018.97
2017-11-17T05:27:26.911Z,1018.95
2017-11-17T05:28:26.906Z,1018.97
2017-11-17T05:29:26.893Z,1019.01
2017-11-17T05:30:26.890Z,1018.98
2017-11-17T05:31:26.880Z,1019.01
2017-11-17T05:32:26.873Z,1019.02
2017-11-17T05:33:26.868Z,1018.99
2017-11-17T05:34:26.860Z,1018.97
2017-11-17T05:35:26.853Z,1019.02
2017-11-17T05:36:26.850Z,1019.07
2017-11-17T05:37:26.837Z,1019.09
2017-11-17T05:38:26.830Z,1019.06
2017-11-17T05:39:26.824Z,1019.09
2017-11-17T05:40:26.823Z,1019.07
2017-11-17T05:41:26.809Z,1019.08
2017-11-17T05:42:26.796Z,1019.09
2017-11-17T05:43:26.794Z,1019.08
2017-11-17T05:44:26.781Z,1019.05
2017-11-17T05:45:26.769Z,1019.09
2017-11-17T05:46:26.763Z,1019.08
2017-11-17T05:47:26.753Z,1019.11
2017-11-17T05:48:26.752Z,1019.13
2017-11-17T05:49:26.735Z,1019.14
2017-11-17T05:50:26.738Z,1019.10
2017-11-17T05:51:26.728Z,1019.16
2017-11-17T05:52:26.717Z,1019.20
2017-11-17T05:53:26.713Z,1019.22
2017-11-17T05:54:26.705Z,1019.20
2017-11-17T05:55:26.696Z,1019.19
2017-11-17T05:56:26.695Z,1019.17
2017-11-17T05:57:26.679Z,1019.21
2017-11-17T05:58:26.668Z,1019.17
2017-11-17T05:59:26.662Z,1019.17
2017-11-17T06:00:26.661Z,1019.18
2017-11-17T06:01:26.645Z,1019.18
2017-11-17T06:02:26.638Z,1019.21
2017-11-17T06:03:26.625Z,1019.23
2017-11-17T06:04:26.624Z,1019.27
2017-11-17T06:05:26.624Z,1019.26
2017-11-17T06:06:26.602Z,1019.31
2017-11-17T06:07:26.601Z,1019.29
2017-11-17T06:08:26.593Z,1019.28
2017-11-17T06:09:26.583Z,1019.34
2017-11-17T06:10:26.575Z,1019.33
2017-11-17T06:11:26.559Z,1019.38
2017-11-17T06:12:26.554Z,1019.41
2017-11-17T06:13:26.550Z,1019.39
2017-11-17T06:14:26.551Z,1019.40
2017-11-17T06:15:26.540Z,1019.42
2017-11-17T06:16:26.527Z,1019.40
2017-11-17T06:17:26.521Z,1019.39
2017-11-17T06:18:26.509Z,1019.45
2017-11-17T06:19:26.499Z,1019.45
2017-11-17T06:20:26.496Z,1019.44
2017-11-17T06:21:26.529Z,1019.48
2017-11-17T06:22:26.475Z,1019.45
2017-11-17T06:23:26.468Z,1019.43
2017-11-17T06:24:26.461Z,1019.45
2017-11-17T06:25:26.453Z,1019.45
2017-11-17T06:26:26.444Z,1019.50
2017-11-17T06:27:26.436Z,1019.45
2017-11-17T06:28:26.444Z,1019.49
2017-11-17T06:29:26.421Z,1019.48
2017-11-17T06:30:26.577Z,1019.48
2017-11-17T06:31:26.408Z,1019.49
2017-11-17T06:32:26.425Z,1019.52
2017-11-17T06:33:26.394Z,1019.50
2017-11-17T06:34:26.381Z,1019.51
2017-11-17T06:35:26.378Z,1019.52
2017-11-17T06:36:26.391Z,1019.53
2017-11-17T06:37:26.363Z,1019.58
2017-11-17T06:38:26.349Z,1019.58
2017-11-17T06:39:26.341Z,1019.55
2017-11-17T06:40:26.334Z,1019.60
2017-11-17T06:41:26.330Z,1019.55
2017-11-17T06:42:26.334Z,1019.59
2017-11-17T06:43:26.312Z,1019.63
2017-11-17T06:44:26.301Z,1019.61
2017-11-17T06:45:26.304Z,1019.62
2017-11-17T06:46:26.300Z,1019.58
2017-11-17T06:47:26.274Z,1019.58
2017-11-17T06:48:26.280Z,1019.57
2017-11-17T06:49:26.267Z,1019.59
2017-11-17T06:50:26.259Z,1019.60
2017-11-17T06:51:26.272Z,1019.64
2017-11-17T06:52:27.236Z,1019.69
2017-11-17T06:53:26.238Z,1019.68
2017-11-17T06:54:26.223Z,1019.66
2017-11-17T06:55:26.218Z,1019.70
2017-11-17T06:56:26.218Z,1019.71
2017-11-17T06:57:26.194Z,1019.75
2017-11-17T06:58:26.200Z,1019.77
2017-11-17T06:59:26.188Z,1019.79
2017-11-17T07:00:26.179Z,1019.84
2017-11-17T07:01:26.406Z,1019.83
2017-11-17T07:02:26.164Z,1019.86
2017-11-17T07:03:26.165Z,1019.84
2017-11-17T07:04:26.150Z,1019.90
2017-11-17T07:05:26.137Z,1019.89
2017-11-17T07:06:26.138Z,1019.94
2017-11-17T07:07:26.131Z,1020.00
2017-11-17T07:08:26.116Z,1020.00
2017-11-17T07:09:26.118Z,1019.99
2017-11-17T07:10:26.102Z,1020.01
2017-11-17T07:11:26.099Z,1020.00
2017-11-17T07:12:26.085Z,1020.06
2017-11-17T07:13:26.083Z,1020.01
2017-11-17T07:14:26.075Z,1020.02
2017-11-17T07:15:26.065Z,1020.04
2017-11-17T07:16:26.053Z,1020.07
2017-11-17T07:17:26.740Z,1020.04
2017-11-17T07:18:26.350Z,1020.05
2017-11-17T07:19:27.522Z,1020.10
2017-11-17T07:20:26.061Z,1020.10
2017-11-17T07:21:42.006Z,1020.07
2017-11-17T07:22:51.436Z,1020.07
2017-11-17T07:24:09.349Z,1020.10
2017-11-17T07:24:36.713Z,1020.12
2017-11-17T07:25:36.591Z,1020.14
2017-11-17T07:26:38.114Z,1020.13
2017-11-17T07:27:37.034Z,1020.12
2017-11-17T07:28:36.596Z,1020.21
2017-11-17T07:29:36.438Z,1020.20
2017-11-17T07:30:36.876Z,1020.17
2017-11-17T07:31:36.481Z,1020.21
2017-11-17T07:32:36.467Z,1020.16
2017-11-17T07:33:37.182Z,1020.17
2017-11-17T07:34:38.048Z,1020.21
2017-11-17T07:37:48.081Z,1020.23
2017-11-17T07:38:47.481Z,1020.26
2017-11-17T07:41:31.836Z,1020.31
2017-11-17T07:42:32.345Z,1020.29
2017-11-17T07:43:32.955Z,1020.28
2017-11-17T07:44:32.356Z,1020.30
2017-11-17T07:45:31.758Z,1020.32
2017-11-17T07:46:31.741Z,1020.31
2017-11-17T07:47:31.736Z,1020.30
2017-11-17T07:48:31.727Z,1020.31
2017-11-17T07:49:31.741Z,1020.32
2017-11-17T07:50:31.709Z,1020.33
2017-11-17T07:51:31.714Z,1020.34
2017-11-17T07:52:31.698Z,1020.35
2017-11-17T07:53:31.691Z,1020.31
2017-11-17T07:54:31.684Z,1020.30
2017-11-17T07:55:31.678Z,1020.30
2017-11-17T07:56:31.681Z,1020.32
2017-11-17T07:57:31.667Z,1020.34
2017-11-17T07:58:31.652Z,1020.33
2017-11-17T07:59:31.647Z,1020.33
2017-11-17T08:00:31.646Z,1020.30
2017-11-17T08:01:31.643Z,1020.30
2017-11-17T08:02:31.624Z,1020.31
2017-11-17T08:03:31.628Z,1020.36
2017-11-17T08:04:31.612Z,1020.34
2017-11-17T08:05:31.604Z,1020.26
2017-11-17T08:06:31.597Z,1020.29
2017-11-17T08:07:31.588Z,1020.31
2017-11-17T08:08:31.582Z,1020.32
2017-11-17T08:09:31.597Z,1020.34
2017-11-17T08:10:31.566Z,1020.36
2017-11-17T08:11:31.560Z,1020.35
2017-11-17T08:12:31.550Z,1020.38
2017-11-17T08:15:55.808Z,1020.42
2017-11-17T08:16:54.670Z,1020.43
2017-11-17T08:20:00.873Z,1020.41
2017-11-17T08:22:56.762Z,1020.45
2017-11-17T08:23:56.715Z,1020.46
2017-11-17T08:26:41.915Z,1020.40
2017-11-17T08:27:41.650Z,1020.42
2017-11-17T08:30:24.462Z,1020.43
2017-11-17T08:31:24.426Z,1020.45
2017-11-17T08:34:07.831Z,1020.48
2017-11-17T08:35:07.782Z,1020.48
2017-11-17T08:37:54.221Z,1020.49
2017-11-17T08:38:53.647Z,1020.48
2017-11-17T08:41:38.029Z,1020.51
2017-11-17T08:42:38.013Z,1020.54
2017-11-17T08:45:21.392Z,1020.54
2017-11-17T08:46:21.355Z,1020.56
2017-11-17T08:49:05.775Z,1020.55
2017-11-17T08:50:05.708Z,1020.58
2017-11-17T08:52:50.105Z,1020.58
2017-11-17T08:53:50.059Z,1020.58
2017-11-17T08:56:34.443Z,1020.62
2017-11-17T08:57:34.414Z,1020.58
2017-11-17T08:58:34.402Z,1020.62
2017-11-17T08:59:34.392Z,1020.63
2017-11-17T09:00:34.413Z,1020.62
2017-11-17T09:01:34.375Z,1020.62
2017-11-17T09:02:34.373Z,1020.60
2017-11-17T09:03:34.366Z,1020.66
2017-11-17T09:04:34.356Z,1020.64
2017-11-17T09:05:34.349Z,1020.69
2017-11-17T09:06:34.343Z,1020.68
2017-11-17T09:07:34.356Z,1020.68
2017-11-17T09:08:34.331Z,1020.70
2017-11-17T09:09:34.317Z,1020.66
2017-11-17T09:10:34.314Z,1020.70
2017-11-17T09:11:34.309Z,1020.64
2017-11-17T09:12:34.297Z,1020.68
2017-11-17T09:13:34.287Z,1020.65
2017-11-17T09:14:34.293Z,1020.67
2017-11-17T09:15:34.277Z,1020.70
2017-11-17T09:16:34.262Z,1020.73
2017-11-17T09:17:36.993Z,1020.72
2017-11-17T09:18:34.252Z,1020.70
2017-11-17T09:19:34.245Z,1020.67
2017-11-17T09:20:34.241Z,1020.70
2017-11-17T09:21:34.237Z,1020.69
2017-11-17T09:22:34.220Z,1020.71
2017-11-17T09:23:34.217Z,1020.72
2017-11-17T09:24:34.211Z,1020.70
2017-11-17T09:25:34.201Z,1020.71
2017-11-17T09:26:34.212Z,1020.73
2017-11-17T09:27:34.186Z,1020.71
2017-11-17T09:28:35.004Z,1020.79
2017-11-17T09:29:34.186Z,1020.80
2017-11-17T09:30:34.163Z,1020.82
2017-11-17T09:31:34.170Z,1020.81
2017-11-17T09:32:34.997Z,1020.82
2017-11-17T09:33:34.141Z,1020.81
2017-11-17T09:34:35.009Z,1020.81
2017-11-17T09:35:34.129Z,1020.85
2017-11-17T09:36:34.130Z,1020.89
2017-11-17T09:37:37.010Z,1020.85
2017-11-17T09:38:34.107Z,1020.92
2017-11-17T09:39:34.102Z,1020.89
2017-11-17T09:40:34.098Z,1020.91
2017-11-17T09:41:34.079Z,1020.90
2017-11-17T09:42:34.079Z,1020.89
2017-11-17T09:43:34.070Z,1020.88
2017-11-17T09:44:34.065Z,1020.90
2017-11-17T09:45:34.057Z,1020.89
2017-11-17T09:46:34.045Z,1020.90
2017-11-17T09:47:34.042Z,1020.84
2017-11-17T09:48:34.034Z,1020.87
2017-11-17T09:49:34.020Z,1020.88
2017-11-17T09:50:34.018Z,1020.88
2017-11-17T09:51:34.017Z,1020.88
2017-11-17T09:52:34.010Z,1020.89
2017-11-17T09:53:34.009Z,1020.85
2017-11-17T09:54:33.999Z,1020.91
2017-11-17T09:55:33.991Z,1020.87
2017-11-17T09:55:45.986Z,1020.89
2017-11-17T09:57:34.510Z,1020.88
2017-11-17T09:58:33.975Z,1020.87
2017-11-17T09:59:33.961Z,1020.83
2017-11-17T10:00:33.955Z,1020.85
2017-11-17T10:01:33.941Z,1020.82
2017-11-17T10:02:33.948Z,1020.86
2017-11-17T10:03:33.932Z,1020.85
2017-11-17T10:04:33.925Z,1020.84
2017-11-17T10:05:33.925Z,1020.83
2017-11-17T10:06:33.915Z,1020.90
2017-11-17T10:07:33.906Z,1020.88
2017-11-17T10:08:33.913Z,1020.89
2017-11-17T10:09:38.430Z,1020.91
2017-11-17T10:10:33.895Z,1020.91
2017-11-17T10:11:33.884Z,1020.93
2017-11-17T10:12:33.875Z,1020.88
2017-11-17T10:13:33.868Z,1020.91
2017-11-17T10:14:33.861Z,1020.91
2017-11-17T10:15:33.856Z,1020.88
2017-11-17T10:16:33.858Z,1020.88
2017-11-17T10:17:33.836Z,1020.87
2017-11-17T10:18:33.839Z,1020.87
2017-11-17T10:19:33.829Z,1020.89
2017-11-17T10:20:33.832Z,1020.89
2017-11-17T10:21:33.821Z,1020.89
2017-11-17T10:22:33.960Z,1020.91
2017-11-17T10:23:33.811Z,1020.89
2017-11-17T10:24:34.432Z,1020.88
2017-11-17T10:25:33.965Z,1020.90
2017-11-17T10:26:33.788Z,1020.87
2017-11-17T10:27:33.822Z,1020.86
2017-11-17T10:28:33.774Z,1020.92
2017-11-17T10:29:33.853Z,1020.90
2017-11-17T10:30:33.896Z,1020.94
2017-11-17T10:31:33.767Z,1020.94
2017-11-17T10:32:33.753Z,1020.92
2017-11-17T10:33:33.748Z,1020.93
2017-11-17T10:34:33.738Z,1020.93
2017-11-17T10:35:33.727Z,1020.93
2017-11-17T10:36:33.728Z,1020.90
2017-11-17T10:37:34.532Z,1020.87
2017-11-17T10:38:33.715Z,1020.87
2017-11-17T10:39:33.710Z,1020.86
2017-11-17T10:40:33.705Z,1020.86
2017-11-17T10:41:33.703Z,1020.83
2017-11-17T10:42:34.540Z,1020.86
2017-11-17T10:43:33.682Z,1020.86
2017-11-17T10:44:33.676Z,1020.80
2017-11-17T10:45:33.664Z,1020.82
2017-11-17T10:46:33.656Z,1020.82
2017-11-17T10:47:36.533Z,1020.85
2017-11-17T10:48:33.655Z,1020.85
2017-11-17T10:49:33.650Z,1020.82
2017-11-17T10:50:33.638Z,1020.84
2017-11-17T10:51:36.549Z,1020.83
2017-11-17T10:52:33.642Z,1020.82
2017-11-17T10:53:33.628Z,1020.83
2017-11-17T10:54:33.617Z,1020.83
2017-11-17T10:55:33.619Z,1020.83
2017-11-17T10:56:33.594Z,1020.82
2017-11-17T10:57:33.592Z,1020.83
2017-11-17T10:58:33.584Z,1020.79
2017-11-17T10:59:33.580Z,1020.76
2017-11-17T11:00:33.574Z,1020.78
2017-11-17T11:01:33.570Z,1020.75
2017-11-17T11:02:33.564Z,1020.75
2017-11-17T11:03:33.557Z,1020.75
2017-11-17T11:04:33.555Z,1020.77
2017-11-17T11:05:33.550Z,1020.78
2017-11-17T11:06:33.542Z,1020.75
2017-11-17T11:07:33.540Z,1020.71
2017-11-17T11:08:33.566Z,1020.70
2017-11-17T11:09:33.518Z,1020.69
2017-11-17T11:10:33.512Z,1020.70
2017-11-17T11:11:33.501Z,1020.72
2017-11-17T11:12:33.496Z,1020.72
2017-11-17T11:13:33.492Z,1020.68
2017-11-17T11:14:33.492Z,1020.71
2017-11-17T11:15:33.480Z,1020.69
2017-11-17T11:16:33.474Z,1020.67
2017-11-17T11:17:33.471Z,1020.64
2017-11-17T11:18:33.466Z,1020.64
2017-11-17T11:19:33.459Z,1020.63
2017-11-17T11:20:33.448Z,1020.61
2017-11-17T11:21:33.439Z,1020.63
2017-11-17T11:22:33.435Z,1020.64
2017-11-17T11:23:33.446Z,1020.65
2017-11-17T11:24:33.919Z,1020.65
2017-11-17T11:25:33.705Z,1020.66
2017-11-17T11:26:40.565Z,1020.67
2017-11-17T11:27:33.852Z,1020.66
2017-11-17T11:28:33.661Z,1020.63
2017-11-17T11:29:33.389Z,1020.61
2017-11-17T11:30:33.471Z,1020.61
2017-11-17T11:31:33.374Z,1020.57
2017-11-17T11:32:33.367Z,1020.54
2017-11-17T11:33:33.366Z,1020.54
2017-11-17T11:34:33.610Z,1020.55
2017-11-17T11:35:33.854Z,1020.57
2017-11-17T11:36:33.704Z,1020.60
2017-11-17T11:37:33.330Z,1020.57
2017-11-17T11:38:33.319Z,1020.55
2017-11-17T11:39:33.972Z,1020.51
2017-11-17T11:40:33.303Z,1020.51
2017-11-17T11:41:34.269Z,1020.48
2017-11-17T11:42:33.288Z,1020.45
2017-11-17T11:43:33.408Z,1020.49
2017-11-17T11:44:33.520Z,1020.50
2017-11-17T11:45:34.221Z,1020.47
2017-11-17T11:46:34.484Z,1020.47
2017-11-17T11:47:33.378Z,1020.46
2017-11-17T11:48:33.411Z,1020.47
2017-11-17T11:49:33.243Z,1020.43
2017-11-17T11:50:34.543Z,1020.46
2017-11-17T11:51:34.210Z,1020.42
2017-11-17T11:52:34.174Z,1020.45
2017-11-17T11:53:34.857Z,1020.46
2017-11-17T11:54:34.725Z,1020.43
2017-11-17T11:55:33.466Z,1020.42
2017-11-17T11:56:33.213Z,1020.47
2017-11-17T11:57:33.185Z,1020.43
2017-11-17T11:58:34.635Z,1020.41
2017-11-17T11:59:33.170Z,1020.42
2017-11-17T12:00:33.161Z,1020.46
2017-11-17T12:01:33.160Z,1020.45
2017-11-17T12:02:33.152Z,1020.43
2017-11-17T12:03:33.144Z,1020.46
2017-11-17T12:04:33.135Z,1020.44
2017-11-17T12:05:33.125Z,1020.40
2017-11-17T12:06:33.120Z,1020.41
2017-11-17T12:07:33.128Z,1020.37
2017-11-17T12:08:33.102Z,1020.37
2017-11-17T12:09:33.097Z,1020.37
2017-11-17T12:10:33.090Z,1020.38
2017-11-17T12:11:33.093Z,1020.35
2017-11-17T12:12:33.074Z,1020.34
2017-11-17T12:13:33.065Z,1020.32
2017-11-17T12:14:33.058Z,1020.36
2017-11-17T12:15:33.053Z,1020.35
2017-11-17T12:16:33.055Z,1020.35
2017-11-17T12:17:33.036Z,1020.32
2017-11-17T12:18:33.047Z,1020.34
2017-11-17T12:19:33.019Z,1020.33
2017-11-17T12:20:33.020Z,1020.29
2017-11-17T12:21:33.009Z,1020.34
2017-11-17T12:22:32.997Z,1020.27
2017-11-17T12:23:32.998Z,1020.31
2017-11-17T12:24:32.994Z,1020.28
2017-11-17T12:25:32.988Z,1020.30
2017-11-17T12:26:32.967Z,1020.29
2017-11-17T12:27:32.966Z,1020.32
2017-11-17T12:28:33.575Z,1020.34
2017-11-17T12:29:32.943Z,1020.29
2017-11-17T12:30:32.964Z,1020.30
2017-11-17T12:31:32.925Z,1020.30